Time;durP1;ratioP1;P1;durP2;ratioP2;P2;SDS_P1;SDS_P2;PMS_P1;PMS_P2;Temp;Humidity;BMP_temperature;BMP_pressure;BME280_temperature;BME280_humidity;BME280_pressure;Samples;Min_cycle;Max_cycle;Signal;HPM_P1;HPM_P2
2023/07/17 00:02:03;;;;;;;;;;;;;;;;;;7368684;19;20033;-75
2023/07/17 00:04:29;;;;;;;;;;;;;;;;;;7370490;19;20378;-74
2023/07/17 00:06:54;;;;;;;;;;;;;;;;;;7366746;19;19945;-76
2023/07/17 00:09:19;;;;;;;;;;;;;;;;;;7393059;19;20052;-76
2023/07/17 00:11:44;;;;;;;;;;;;;;;;;;7368199;19;20326;-76
2023/07/17 00:14:10;;;;;;;;;;;;;;;;;;7368073;19;19952;-75
2023/07/17 00:16:35;;;;;;;;;;;;;;;;;;7368340;19;19919;-76
2023/07/17 00:19:00;;;;;;;;;;;;;;;;;;7367603;19;21100;-75
2023/07/17 00:21:26;;;;;;;;;;;;;;;;;;7388701;19;20010;-76
2023/07/17 00:23:51;;;;;;;;;;;;;;;;;;7368598;19;20011;-76
2023/07/17 00:26:17;;;;;;;;;;;;;;;;;;7368017;19;19946;-76
2023/07/17 00:28:42;;;;;;;;;;;;;;;;;;7366132;19;20373;-76
2023/07/17 00:31:07;;;;;;;;;;;;;;;;;;7370050;19;19912;-76
2023/07/17 00:33:32;;;;;;;;;;;;;;;;;;7389765;19;19919;-76
2023/07/17 00:35:58;;;;;;;;;;;;;;;;;;7372375;19;19929;-76
2023/07/17 00:38:23;;;;;;;;;;;;;;;;;;7377598;19;19925;-76
2023/07/17 00:40:48;;;;;;;;;;;;;;;;;;7374794;19;20673;-76
2023/07/17 00:43:13;;;;;;;;;;;;;;;;;;7376117;19;19945;-76
2023/07/17 00:45:40;;;;;;;;;;;;;;;;;;7406996;19;19940;-76
2023/07/17 00:48:05;;;;;;;;;;;;;;;;;;7382120;19;19919;-75
2023/07/17 00:50:31;;;;;;;;;;;;;;;;;;7377018;19;20080;-76
2023/07/17 00:52:56;;;;;;;;;;;;;;;;;;7364718;19;20350;-76
2023/07/17 00:55:21;;;;;;;;;;;;;;;;;;7364923;19;20341;-76
2023/07/17 00:57:48;;;;;;;;;;;;;;;;;;7385926;19;20276;-76
2023/07/17 01:00:13;;;;;;;;;;;;;;;;;;7363191;19;20480;-76
2023/07/17 01:02:41;;;;;;;;;;;;;;;;;;7364961;19;19918;-76
2023/07/17 01:05:08;;;;;;;;;;;;;;;;;;7366324;19;19922;-76
2023/07/17 01:07:34;;;;;;;;;;;;;;;;;;7364190;19;19930;-76
2023/07/17 01:09:59;;;;;;;;;;;;;;;;;;7364013;19;19922;-76
2023/07/17 01:12:24;;;;;;;;;;;;;;;;;;7388477;19;20012;-76
2023/07/17 01:14:49;;;;;;;;;;;;;;;;;;7365770;19;19922;-76
2023/07/17 01:17:16;;;;;;;;;;;;;;;;;;7366163;19;20078;-76
2023/07/17 01:19:41;;;;;;;;;;;;;;;;;;7363447;19;20349;-76
2023/07/17 01:22:21;;;;;;;;;;;;;;;;;;7368425;19;19928;-76
2023/07/17 01:24:46;;;;;;;;;;;;;;;;;;7388935;19;19915;-76
2023/07/17 01:27:15;;;;;;;;;;;;;;;;;;7366472;19;19948;-76
2023/07/17 01:29:40;;;;;;;;;;;;;;;;;;7366403;19;19948;-76
2023/07/17 01:32:06;;;;;;;;;;;;;;;;;;7366029;19;19914;-76
2023/07/17 01:34:31;;;;;;;;;;;;;;;;;;7364272;19;19971;-76
2023/07/17 01:36:56;;;;;;;;;;;;;;;;;;7365253;19;19936;-76
2023/07/17 01:39:24;;;;;;;;;;;;;;;;;;7384928;19;19907;-76
2023/07/17 01:41:49;;;;;;;;;;;;;;;;;;7364815;19;19923;-76
2023/07/17 01:44:15;;;;;;;;;;;;;;;;;;7364490;19;19923;-76
2023/07/17 01:46:40;;;;;;;;;;;;;;;;;;7370568;19;19976;-76
2023/07/17 01:49:05;;;;;;;;;;;;;;;;;;7372722;19;19923;-76
2023/07/17 01:51:30;;;;;;;;;;;;;;;;;;7393982;19;19938;-76
2023/07/17 01:53:55;;;;;;;;;;;;;;;;;;7369214;19;19919;-76
2023/07/17 01:56:21;;;;;;;;;;;;;;;;;;7373000;19;19915;-76
2023/07/17 01:58:46;;;;;;;;;;;;;;;;;;7368606;19;19940;-76
2023/07/17 02:01:11;;;;;;;;;;;;;;;;;;7371897;19;19918;-76
2023/07/17 02:03:37;;;;;;;;;;;;;;;;;;7394713;19;19935;-76
2023/07/17 02:06:03;;;;;;;;;;;;;;;;;;7371446;19;19923;-76
2023/07/17 02:08:28;;;;;;;;;;;;;;;;;;7368793;19;21096;-76
2023/07/17 02:10:53;;;;;;;;;;;;;;;;;;7370628;19;19914;-76
2023/07/17 02:13:19;;;;;;;;;;;;;;;;;;7372065;19;20374;-76
2023/07/17 02:15:44;;;;;;;;;;;;;;;;;;7394554;19;19919;-76
2023/07/17 02:18:09;;;;;;;;;;;;;;;;;;7370633;19;19943;-77
2023/07/17 02:20:35;;;;;;;;;;;;;;;;;;7371960;19;19990;-76
2023/07/17 02:23:01;;;;;;;;;;;;;;;;;;7373130;19;19950;-76
2023/07/17 02:25:26;;;;;;;;;;;;;;;;;;7371905;19;19910;-76
2023/07/17 02:27:51;;;;;;;;;;;;;;;;;;7370818;19;19938;-76
2023/07/17 02:30:16;;;;;;;;;;;;;;;;;;7391798;19;20437;-76
2023/07/17 02:32:42;;;;;;;;;;;;;;;;;;7370597;19;20338;-76
2023/07/17 02:35:08;;;;;;;;;;;;;;;;;;7370453;19;19922;-76
2023/07/17 02:37:34;;;;;;;;;;;;;;;;;;7369479;19;19968;-75
2023/07/17 02:39:59;;;;;;;;;;;;;;;;;;7370339;19;19911;-75
2023/07/17 02:42:24;;;;;;;;;;;;;;;;;;7392449;19;19915;-76
2023/07/17 02:44:49;;;;;;;;;;;;;;;;;;7371095;19;19942;-75
2023/07/17 02:47:15;;;;;;;;;;;;;;;;;;7368615;19;19995;-75
2023/07/17 02:49:41;;;;;;;;;;;;;;;;;;7370811;19;19926;-76
2023/07/17 02:52:06;;;;;;;;;;;;;;;;;;7370388;19;20286;-76
2023/07/17 02:54:31;;;;;;;;;;;;;;;;;;7390560;19;20359;-76
2023/07/17 02:56:56;;;;;;;;;;;;;;;;;;7366256;19;19919;-75
2023/07/17 02:59:22;;;;;;;;;;;;;;;;;;7373204;19;19926;-75
2023/07/17 03:01:48;;;;;;;;;;;;;;;;;;7367497;19;19914;-75
2023/07/17 03:04:13;;;;;;;;;;;;;;;;;;7371700;19;19930;-75
2023/07/17 03:06:38;;;;;;;;;;;;;;;;;;7393315;19;19961;-75
2023/07/17 03:09:03;;;;;;;;;;;;;;;;;;7371646;19;19961;-75
2023/07/17 03:11:29;;;;;;;;;;;;;;;;;;7368748;19;19915;-75
2023/07/17 03:13:54;;;;;;;;;;;;;;;;;;7370369;19;19923;-75
2023/07/17 03:16:19;;;;;;;;;;;;;;;;;;7368302;19;20595;-75
2023/07/17 03:18:44;;;;;;;;;;;;;;;;;;7392762;19;19944;-76
2023/07/17 03:21:09;;;;;;;;;;;;;;;;;;7371373;19;20269;-76
2023/07/17 03:23:35;;;;;;;;;;;;;;;;;;7371404;19;19923;-76
2023/07/17 03:26:00;;;;;;;;;;;;;;;;;;7371712;19;19963;-76
2023/07/17 03:28:25;;;;;;;;;;;;;;;;;;7370928;19;19922;-76
2023/07/17 03:30:51;;;;;;;;;;;;;;;;;;7373109;19;20020;-76
2023/07/17 03:33:16;;;;;;;;;;;;;;;;;;7392383;19;20539;-75
2023/07/17 03:35:41;;;;;;;;;;;;;;;;;;7369501;19;19914;-75
2023/07/17 03:38:07;;;;;;;;;;;;;;;;;;7369546;19;19914;-75
2023/07/17 03:40:32;;;;;;;;;;;;;;;;;;7366652;19;19948;-75
2023/07/17 03:42:58;;;;;;;;;;;;;;;;;;7367143;19;19922;-75
2023/07/17 03:45:23;;;;;;;;;;;;;;;;;;7391001;19;19957;-75
2023/07/17 03:47:51;;;;;;;;;;;;;;;;;;7368933;19;19923;-75
2023/07/17 03:50:16;;;;;;;;;;;;;;;;;;7373388;19;19921;-75
2023/07/17 03:52:42;;;;;;;;;;;;;;;;;;7392100;19;19919;-75
2023/07/17 03:55:07;;;;;;;;;;;;;;;;;;7402464;19;19932;-75
2023/07/17 03:57:32;;;;;;;;;;;;;;;;;;7419959;19;19918;-75
2023/07/17 03:59:57;;;;;;;;;;;;;;;;;;7397368;19;19930;-75
2023/07/17 04:02:23;;;;;;;;;;;;;;;;;;7385636;19;19919;-76
2023/07/17 04:04:48;;;;;;;;;;;;;;;;;;7370524;19;20270;-75
2023/07/17 04:07:14;;;;;;;;;;;;;;;;;;7370854;19;19921;-75
2023/07/17 04:09:39;;;;;;;;;;;;;;;;;;7392805;19;19982;-76
2023/07/17 04:12:05;;;;;;;;;;;;;;;;;;7367359;19;19930;-76
2023/07/17 04:14:31;;;;;;;;;;;;;;;;;;7369316;19;19919;-75
2023/07/17 04:16:56;;;;;;;;;;;;;;;;;;7368585;19;19925;-75
2023/07/17 04:19:21;;;;;;;;;;;;;;;;;;7369694;19;19911;-75
2023/07/17 04:21:46;;;;;;;;;;;;;;;;;;7387550;19;20017;-76
2023/07/17 04:24:11;;;;;;;;;;;;;;;;;;7367766;19;19990;-75
2023/07/17 04:26:37;;;;;;;;;;;;;;;;;;7367240;19;19911;-76
2023/07/17 04:29:02;;;;;;;;;;;;;;;;;;7366241;19;19922;-76
2023/07/17 04:31:28;;;;;;;;;;;;;;;;;;7367311;19;19921;-76
2023/07/17 04:33:53;;;;;;;;;;;;;;;;;;7365973;19;19947;-76
2023/07/17 04:36:18;;;;;;;;;;;;;;;;;;7389515;19;19923;-76
2023/07/17 04:38:43;;;;;;;;;;;;;;;;;;7367972;19;19922;-74
2023/07/17 04:41:09;;;;;;;;;;;;;;;;;;7366397;19;19914;-76
2023/07/17 04:43:34;;;;;;;;;;;;;;;;;;7369400;19;19918;-76
2023/07/17 04:45:59;;;;;;;;;;;;;;;;;;7369476;19;19925;-75
2023/07/17 04:48:25;;;;;;;;;;;;;;;;;;7355460;19;20005;-75
2023/07/17 04:50:51;;;;;;;;;;;;;;;;;;7359418;19;20306;-75
2023/07/17 04:53:16;;;;;;;;;;;;;;;;;;7364778;19;19907;-76
2023/07/17 04:55:41;;;;;;;;;;;;;;;;;;7375567;19;19923;-75
2023/07/17 04:58:07;;;;;;;;;;;;;;;;;;7375111;19;19961;-75
2023/07/17 05:00:33;;;;;;;;;;;;;;;;;;7390554;19;19922;-75
2023/07/17 05:02:58;;;;;;;;;;;;;;;;;;7370001;19;19927;-75
2023/07/17 05:05:23;;;;;;;;;;;;;;;;;;7370682;19;19919;-75
2023/07/17 05:07:49;;;;;;;;;;;;;;;;;;7369266;19;19944;-76
2023/07/17 05:10:14;;;;;;;;;;;;;;;;;;7369153;19;19974;-75
2023/07/17 05:12:40;;;;;;;;;;;;;;;;;;7389736;19;19926;-76
2023/07/17 05:15:05;;;;;;;;;;;;;;;;;;7366834;19;19915;-76
2023/07/17 05:17:30;;;;;;;;;;;;;;;;;;7367755;19;19950;-76
2023/07/17 05:19:56;;;;;;;;;;;;;;;;;;7366658;19;19926;-75
2023/07/17 05:22:21;;;;;;;;;;;;;;;;;;7367979;19;19918;-76
2023/07/17 05:24:47;;;;;;;;;;;;;;;;;;7388312;19;19922;-76
2023/07/17 05:27:12;;;;;;;;;;;;;;;;;;7365187;19;20335;-76
2023/07/17 05:29:37;;;;;;;;;;;;;;;;;;7364717;19;19918;-76
2023/07/17 05:32:03;;;;;;;;;;;;;;;;;;7366768;19;19950;-75
2023/07/17 05:34:28;;;;;;;;;;;;;;;;;;7365646;19;19916;-75
2023/07/17 05:36:53;;;;;;;;;;;;;;;;;;7365950;19;19919;-75
2023/07/17 05:39:19;;;;;;;;;;;;;;;;;;7387442;19;20503;-75
2023/07/17 05:41:44;;;;;;;;;;;;;;;;;;7364519;19;20349;-69
2023/07/17 05:44:09;;;;;;;;;;;;;;;;;;7365937;19;19932;-69
2023/07/17 05:46:34;;;;;;;;;;;;;;;;;;7365006;19;19944;-69
2023/07/17 05:49:00;;;;;;;;;;;;;;;;;;7365731;19;19910;-69
2023/07/17 05:51:25;;;;;;;;;;;;;;;;;;7385980;19;19918;-69
2023/07/17 05:53:50;;;;;;;;;;;;;;;;;;7361886;19;20264;-69
2023/07/17 05:56:15;;;;;;;;;;;;;;;;;;7362132;19;20237;-69
2023/07/17 05:58:41;;;;;;;;;;;;;;;;;;7355637;19;19974;-69
2023/07/17 06:01:06;;;;;;;;;;;;;;;;;;7363864;19;19919;-69
2023/07/17 06:03:31;;;;;;;;;;;;;;;;;;7386922;19;20417;-69
2023/07/17 06:05:56;;;;;;;;;;;;;;;;;;7354607;19;19952;-69
2023/07/17 06:08:22;;;;;;;;;;;;;;;;;;7366102;19;19915;-69
2023/07/17 06:10:48;;;;;;;;;;;;;;;;;;7364319;19;20015;-68
2023/07/17 06:13:13;;;;;;;;;;;;;;;;;;7363253;19;20005;-69
2023/07/17 06:15:38;;;;;;;;;;;;;;;;;;7385621;19;19910;-69
2023/07/17 06:18:04;;;;;;;;;;;;;;;;;;7361669;19;19992;-72
2023/07/17 06:20:29;;;;;;;;;;;;;;;;;;7363000;19;19922;-76
2023/07/17 06:22:54;;;;;;;;;;;;;;;;;;7365977;19;19923;-72
2023/07/17 06:25:19;;;;;;;;;;;;;;;;;;7365606;19;20337;-75
2023/07/17 06:27:45;;;;;;;;;;;;;;;;;;7385240;19;20259;-75
2023/07/17 06:30:10;;;;;;;;;;;;;;;;;;7363003;19;20334;-72
2023/07/17 06:32:35;;;;;;;;;;;;;;;;;;7366135;19;20380;-71
2023/07/17 06:35:01;;;;;;;;;;;;;;;;;;7371642;19;20160;-73
2023/07/17 06:37:26;;;;;;;;;;;;;;;;;;7368776;19;19947;-73
2023/07/17 06:39:51;;;;;;;;;;;;;;;;;;7369439;19;19919;-72
2023/07/17 06:42:16;;;;;;;;;;;;;;;;;;7390636;19;19923;-75
2023/07/17 06:44:42;;;;;;;;;;;;;;;;;;7369840;19;19918;-73
2023/07/17 06:47:07;;;;;;;;;;;;;;;;;;7370017;19;19922;-74
2023/07/17 06:49:32;;;;;;;;;;;;;;;;;;7371091;19;19982;-75
2023/07/17 06:51:57;;;;;;;;;;;;;;;;;;7369836;19;19940;-76
2023/07/17 06:54:23;;;;;;;;;;;;;;;;;;7392229;19;19951;-74
2023/07/17 06:56:48;;;;;;;;;;;;;;;;;;7382292;19;19935;-77
2023/07/17 06:59:13;;;;;;;;;;;;;;;;;;7390859;19;20611;-77
2023/07/17 07:01:38;;;;;;;;;;;;;;;;;;7377459;19;19921;-73
2023/07/17 07:04:04;;;;;;;;;;;;;;;;;;7371791;19;19930;-71
2023/07/17 07:06:29;;;;;;;;;;;;;;;;;;7392576;19;19931;-75
2023/07/17 07:08:54;;;;;;;;;;;;;;;;;;7368778;19;19953;-76
2023/07/17 07:11:19;;;;;;;;;;;;;;;;;;7369956;19;19915;-80
2023/07/17 07:13:45;;;;;;;;;;;;;;;;;;7369987;19;19939;-74
2023/07/17 07:16:11;;;;;;;;;;;;;;;;;;7366239;19;20369;-72
2023/07/17 07:18:36;;;;;;;;;;;;;;;;;;7387830;19;19939;-73
2023/07/17 07:21:01;;;;;;;;;;;;;;;;;;7364882;19;19911;-75
2023/07/17 07:23:26;;;;;;;;;;;;;;;;;;7374764;19;19915;-73
2023/07/17 07:25:52;;;;;;;;;;;;;;;;;;7367813;19;19919;-75
2023/07/17 07:28:17;;;;;;;;;;;;;;;;;;7368030;19;19922;-70
2023/07/17 07:30:42;;;;;;;;;;;;;;;;;;7386518;19;19923;-72
2023/07/17 07:33:07;;;;;;;;;;;;;;;;;;7365708;19;19942;-70
2023/07/17 07:35:33;;;;;;;;;;;;;;;;;;7368688;19;19923;-71
2023/07/17 07:37:58;;;;;;;;;;;;;;;;;;7367147;19;20318;-71
2023/07/17 07:40:23;;;;;;;;;;;;;;;;;;7365200;19;19919;-72
2023/07/17 07:42:48;;;;;;;;;;;;;;;;;;7374199;19;19958;-72
2023/07/17 07:45:14;;;;;;;;;;;;;;;;;;7387667;19;19949;-71
2023/07/17 07:47:40;;;;;;;;;;;;;;;;;;7377176;19;20018;-76
2023/07/17 07:50:06;;;;;;;;;;;;;;;;;;7374803;19;19978;-73
2023/07/17 07:52:31;;;;;;;;;;;;;;;;;;7365527;19;19943;-73
2023/07/17 07:54:56;;;;;;;;;;;;;;;;;;7366421;19;19918;-71
2023/07/17 07:57:21;;;;;;;;;;;;;;;;;;7389106;19;20385;-72
2023/07/17 07:59:48;;;;;;;;;;;;;;;;;;7364948;19;20368;-70
2023/07/17 08:02:13;;;;;;;;;;;;;;;;;;7364412;19;20015;-73
2023/07/17 08:04:38;;;;;;;;;;;;;;;;;;7368917;19;19923;-74
2023/07/17 08:07:03;;;;;;;;;;;;;;;;;;7366461;19;19928;-72
2023/07/17 08:09:29;;;;;;;;;;;;;;;;;;7388708;19;19914;-71
2023/07/17 08:11:54;;;;;;;;;;;;;;;;;;7364771;19;19923;-71
2023/07/17 08:14:22;;;;;;;;;;;;;;;;;;7367150;19;19947;-71
2023/07/17 08:16:48;;;;;;;;;;;;;;;;;;7369366;19;19918;-74
2023/07/17 08:19:13;;;;;;;;;;;;;;;;;;7371308;19;19923;-73
2023/07/17 08:21:38;;;;;;;;;;;;;;;;;;7391230;19;20025;-68
2023/07/17 08:24:04;;;;;;;;;;;;;;;;;;7367016;19;19923;-72
2023/07/17 08:26:29;;;;;;;;;;;;;;;;;;7367038;19;20002;-72
2023/07/17 08:28:54;;;;;;;;;;;;;;;;;;7363933;19;19922;-72
2023/07/17 08:31:19;;;;;;;;;;;;;;;;;;7365441;19;19947;-72
2023/07/17 08:33:45;;;;;;;;;;;;;;;;;;7387838;19;19927;-71
2023/07/17 08:36:10;;;;;;;;;;;;;;;;;;7367336;19;19931;-71
2023/07/17 08:38:36;;;;;;;;;;;;;;;;;;7366266;19;20334;-71
2023/07/17 08:41:02;;;;;;;;;;;;;;;;;;7367611;19;20413;-71
2023/07/17 08:43:27;;;;;;;;;;;;;;;;;;7369646;19;19918;-72
2023/07/17 08:45:52;;;;;;;;;;;;;;;;;;7371429;19;19929;-74
2023/07/17 08:48:18;;;;;;;;;;;;;;;;;;7400591;19;19914;-77
2023/07/17 08:50:43;;;;;;;;;;;;;;;;;;7380229;19;19975;-78
2023/07/17 08:53:09;;;;;;;;;;;;;;;;;;7379002;19;20020;-74
2023/07/17 08:55:35;;;;;;;;;;;;;;;;;;7370538;19;19915;-71
2023/07/17 08:58:01;;;;;;;;;;;;;;;;;;7371716;19;19917;-73
2023/07/17 09:00:27;;;;;;;;;;;;;;;;;;7388029;19;19919;-69
2023/07/17 09:02:53;;;;;;;;;;;;;;;;;;7368469;19;19918;-70
2023/07/17 09:05:18;;;;;;;;;;;;;;;;;;7367775;19;19926;-74
2023/07/17 09:07:43;;;;;;;;;;;;;;;;;;7367012;19;19934;-70
2023/07/17 09:10:21;;;;;;;;;;;;;;;;;;7363819;19;19962;-71
2023/07/17 09:13:14;;;;;;;;;;;;;;;;;;7388432;19;19923;-71
2023/07/17 09:15:42;;;;;;;;;;;;;;;;;;7265111;19;2024426;-74
2023/07/17 09:18:08;;;;;;;;;;;;;;;;;;7390739;19;19971;-75
2023/07/17 09:20:33;;;;;;;;;;;;;;;;;;7367166;19;19936;-76
2023/07/17 09:23:00;;;;;;;;;;;;;;;;;;7368730;19;19911;-75
2023/07/17 09:25:26;;;;;;;;;;;;;;;;;;7374311;19;19919;-78
2023/07/17 09:27:52;;;;;;;;;;;;;;;;;;7369343;19;20019;-76
2023/07/17 09:30:18;;;;;;;;;;;;;;;;;;7387036;19;19927;-76
2023/07/17 09:32:44;;;;;;;;;;;;;;;;;;7368944;19;19922;-77
2023/07/17 09:35:11;;;;;;;;;;;;;;;;;;7369707;19;20558;-74
2023/07/17 09:37:37;;;;;;;;;;;;;;;;;;7364259;19;19956;-73
2023/07/17 09:40:12;;;;;;;;;;;;;;;;;;7360949;19;21624;-71
2023/07/17 09:42:42;;;;;;;;;;;;;;;;;;7386442;19;19944;-72
2023/07/17 09:45:07;;;;;;;;;;;;;;;;;;7364007;19;19946;-72
2023/07/17 09:47:34;;;;;;;;;;;;;;;;;;7363811;19;19945;-70
2023/07/17 09:50:03;;;;;;;;;;;;;;;;;;7363897;19;19918;-72
2023/07/17 09:52:29;;;;;;;;;;;;;;;;;;7365107;19;19914;-69
2023/07/17 09:54:54;;;;;;;;;;;;;;;;;;7363550;19;19922;-71
2023/07/17 09:57:23;;;;;;;;;;;;;;;;;;7383520;19;19929;-77
2023/07/17 09:59:48;;;;;;;;;;;;;;;;;;7368915;19;19922;-78
2023/07/17 10:02:16;;;;;;;;;;;;;;;;;;7363447;19;19979;-73
2023/07/17 10:04:43;;;;;;;;;;;;;;;;;;7363672;19;20633;-79
2023/07/17 10:07:09;;;;;;;;;;;;;;;;;;7368672;19;19919;-72
2023/07/17 10:09:36;;;;;;;;;;;;;;;;;;7399854;19;19923;-75
2023/07/17 10:12:01;;;;;;;;;;;;;;;;;;7378357;19;19915;-73
2023/07/17 10:14:27;;;;;;;;;;;;;;;;;;7375575;19;19918;-71
2023/07/17 10:16:52;;;;;;;;;;;;;;;;;;7370393;19;20319;-71
2023/07/17 10:19:18;;;;;;;;;;;;;;;;;;7369437;19;19923;-72
2023/07/17 10:21:54;;;;;;;;;;;;;;;;;;7391659;19;19910;-72
2023/07/17 10:24:21;;;;;;;;;;;;;;;;;;7371221;19;19922;-71
2023/07/17 10:26:48;;;;;;;;;;;;;;;;;;7372613;19;20270;-73
2023/07/17 10:29:13;;;;;;;;;;;;;;;;;;7371390;19;19922;-73
2023/07/17 10:31:47;;;;;;;;;;;;;;;;;;7370800;19;19994;-71
2023/07/17 10:34:12;;;;;;;;;;;;;;;;;;7370616;19;19918;-70
2023/07/17 10:36:39;;;;;;;;;;;;;;;;;;7390542;19;20247;-71
2023/07/17 10:39:05;;;;;;;;;;;;;;;;;;7370235;19;19943;-72
2023/07/17 10:41:30;;;;;;;;;;;;;;;;;;7368874;19;19919;-73
2023/07/17 10:43:56;;;;;;;;;;;;;;;;;;7370184;19;20349;-71
2023/07/17 10:46:25;;;;;;;;;;;;;;;;;;7370751;19;20028;-73
2023/07/17 10:48:50;;;;;;;;;;;;;;;;;;7368646;19;20342;-73
2023/07/17 10:51:16;;;;;;;;;;;;;;;;;;7389660;19;19930;-71
2023/07/17 10:53:41;;;;;;;;;;;;;;;;;;7368464;19;20277;-76
2023/07/17 10:56:06;;;;;;;;;;;;;;;;;;7368970;19;19960;-70
2023/07/17 10:58:31;;;;;;;;;;;;;;;;;;7366680;19;19927;-69
2023/07/17 11:00:57;;;;;;;;;;;;;;;;;;7369664;19;19911;-72
2023/07/17 11:03:24;;;;;;;;;;;;;;;;;;7391305;19;19936;-72
2023/07/17 11:05:52;;;;;;;;;;;;;;;;;;7370037;19;19944;-77
2023/07/17 11:08:18;;;;;;;;;;;;;;;;;;7367414;19;20002;-73
2023/07/17 11:10:44;;;;;;;;;;;;;;;;;;7367348;19;19915;-74
2023/07/17 11:13:09;;;;;;;;;;;;;;;;;;7369841;19;19926;-73
2023/07/17 11:15:35;;;;;;;;;;;;;;;;;;7391425;19;20211;-74
2023/07/17 11:18:01;;;;;;;;;;;;;;;;;;7365373;19;19926;-75
2023/07/17 11:20:27;;;;;;;;;;;;;;;;;;7374203;19;19986;-75
2023/07/17 11:22:52;;;;;;;;;;;;;;;;;;7373269;19;20035;-72
2023/07/17 11:25:17;;;;;;;;;;;;;;;;;;7375675;19;19930;-71
2023/07/17 11:27:43;;;;;;;;;;;;;;;;;;7390547;19;19918;-71
2023/07/17 11:30:24;;;;;;;;;;;;;;;;;;7369218;19;20348;-73
2023/07/17 11:32:56;;;;;;;;;;;;;;;;;;7371985;19;19931;-72
2023/07/17 11:35:21;;;;;;;;;;;;;;;;;;7372351;19;21851;-72
2023/07/17 11:37:47;;;;;;;;;;;;;;;;;;7367795;19;19906;-71
2023/07/17 11:40:12;;;;;;;;;;;;;;;;;;7368827;19;20033;-71
2023/07/17 11:42:57;;;;;;;;;;;;;;;;;;7394661;19;19991;-71
2023/07/17 11:45:26;;;;;;;;;;;;;;;;;;7371725;19;19926;-69
2023/07/17 11:47:55;;;;;;;;;;;;;;;;;;7366442;19;20031;-69
2023/07/17 11:50:24;;;;;;;;;;;;;;;;;;7367083;19;19923;-73
2023/07/17 11:53:03;;;;;;;;;;;;;;;;;;7370844;19;19926;-71
2023/07/17 11:55:32;;;;;;;;;;;;;;;;;;7370151;19;19926;-70
2023/07/17 11:57:57;;;;;;;;;;;;;;;;;;7367730;19;19918;-71
2023/07/17 12:00:23;;;;;;;;;;;;;;;;;;7387595;19;19911;-70
2023/07/17 12:02:48;;;;;;;;;;;;;;;;;;7368270;19;19974;-73
2023/07/17 12:05:13;;;;;;;;;;;;;;;;;;7369597;19;19919;-73
2023/07/17 12:07:38;;;;;;;;;;;;;;;;;;7372599;19;19975;-73
2023/07/17 12:10:04;;;;;;;;;;;;;;;;;;7369852;19;19919;-77
2023/07/17 12:12:29;;;;;;;;;;;;;;;;;;7393252;19;20004;-73
2023/07/17 12:14:55;;;;;;;;;;;;;;;;;;7367761;19;19926;-73
2023/07/17 12:17:20;;;;;;;;;;;;;;;;;;7365146;19;19922;-72
2023/07/17 12:19:45;;;;;;;;;;;;;;;;;;7368134;19;19922;-73
2023/07/17 12:22:11;;;;;;;;;;;;;;;;;;7367870;19;19944;-73
2023/07/17 12:24:36;;;;;;;;;;;;;;;;;;7387584;19;20231;-70
2023/07/17 12:27:02;;;;;;;;;;;;;;;;;;7366922;19;19918;-72
2023/07/17 12:29:27;;;;;;;;;;;;;;;;;;7363317;19;19915;-70
2023/07/17 12:31:52;;;;;;;;;;;;;;;;;;7366050;19;20334;-70
2023/07/17 12:34:17;;;;;;;;;;;;;;;;;;7363764;19;19923;-72
2023/07/17 12:36:43;;;;;;;;;;;;;;;;;;7386900;19;19915;-73
2023/07/17 12:39:12;;;;;;;;;;;;;;;;;;7369956;19;19918;-73
2023/07/17 12:41:37;;;;;;;;;;;;;;;;;;7369808;19;19918;-73
2023/07/17 12:44:03;;;;;;;;;;;;;;;;;;7368043;19;20327;-75
2023/07/17 12:46:28;;;;;;;;;;;;;;;;;;7364247;19;19917;-71
2023/07/17 12:48:53;;;;;;;;;;;;;;;;;;7363446;19;19923;-69
2023/07/17 12:51:18;;;;;;;;;;;;;;;;;;7387032;19;19918;-68
2023/07/17 12:53:43;;;;;;;;;;;;;;;;;;7364483;19;19926;-68
2023/07/17 12:56:09;;;;;;;;;;;;;;;;;;7364310;19;19919;-68
2023/07/17 12:58:34;;;;;;;;;;;;;;;;;;7366341;19;19923;-67
2023/07/17 13:00:59;;;;;;;;;;;;;;;;;;7362677;19;19996;-66
2023/07/17 13:03:25;;;;;;;;;;;;;;;;;;7387540;19;19950;-68
2023/07/17 13:05:50;;;;;;;;;;;;;;;;;;7365399;19;19911;-68
2023/07/17 13:08:15;;;;;;;;;;;;;;;;;;7362698;19;19948;-67
2023/07/17 13:10:41;;;;;;;;;;;;;;;;;;7363277;19;19915;-67
2023/07/17 13:13:06;;;;;;;;;;;;;;;;;;7363212;19;19915;-67
2023/07/17 13:15:31;;;;;;;;;;;;;;;;;;7389424;19;20370;-67
2023/07/17 13:17:56;;;;;;;;;;;;;;;;;;7372208;19;20350;-71
2023/07/17 13:20:21;;;;;;;;;;;;;;;;;;7364316;19;19915;-71
2023/07/17 13:22:47;;;;;;;;;;;;;;;;;;7364214;19;19930;-70
2023/07/17 13:25:12;;;;;;;;;;;;;;;;;;7365110;19;19914;-70
2023/07/17 13:27:37;;;;;;;;;;;;;;;;;;7383255;19;20330;-68
2023/07/17 13:30:03;;;;;;;;;;;;;;;;;;7363115;19;19933;-72
2023/07/17 13:32:28;;;;;;;;;;;;;;;;;;7364304;19;19915;-78
2023/07/17 13:34:53;;;;;;;;;;;;;;;;;;7363661;19;20470;-64
2023/07/17 13:37:19;;;;;;;;;;;;;;;;;;7362119;19;19943;-66
2023/07/17 13:39:44;;;;;;;;;;;;;;;;;;7385311;19;19907;-66
2023/07/17 13:42:10;;;;;;;;;;;;;;;;;;7365927;19;19939;-67
2023/07/17 13:44:35;;;;;;;;;;;;;;;;;;7371610;19;19935;-76
2023/07/17 13:47:00;;;;;;;;;;;;;;;;;;7373213;19;19923;-78
2023/07/17 13:49:25;;;;;;;;;;;;;;;;;;7372882;19;20338;-75
2023/07/17 13:51:51;;;;;;;;;;;;;;;;;;7376549;19;19917;-80
2023/07/17 13:54:16;;;;;;;;;;;;;;;;;;7393428;19;20269;-77
2023/07/17 13:56:41;;;;;;;;;;;;;;;;;;7378251;19;19915;-77
2023/07/17 13:59:07;;;;;;;;;;;;;;;;;;7371988;19;19935;-74
2023/07/17 14:01:32;;;;;;;;;;;;;;;;;;7372258;19;19974;-79
2023/07/17 14:03:57;;;;;;;;;;;;;;;;;;7375106;19;19974;-77
2023/07/17 14:06:23;;;;;;;;;;;;;;;;;;7395392;19;20357;-77
2023/07/17 14:08:48;;;;;;;;;;;;;;;;;;7381004;19;19919;-75
2023/07/17 14:11:13;;;;;;;;;;;;;;;;;;7372536;19;19918;-72
2023/07/17 14:13:39;;;;;;;;;;;;;;;;;;7371429;19;19919;-74
2023/07/17 14:16:08;;;;;;;;;;;;;;;;;;7370272;19;19915;-77
2023/07/17 14:18:33;;;;;;;;;;;;;;;;;;7391737;19;19983;-71
2023/07/17 14:20:58;;;;;;;;;;;;;;;;;;7371264;19;20014;-73
2023/07/17 14:23:23;;;;;;;;;;;;;;;;;;7371385;19;20475;-70
2023/07/17 14:25:49;;;;;;;;;;;;;;;;;;7374987;19;20337;-79
2023/07/17 14:28:14;;;;;;;;;;;;;;;;;;7379237;19;19919;-82
2023/07/17 14:30:40;;;;;;;;;;;;;;;;;;7397013;19;20590;-78
2023/07/17 14:33:05;;;;;;;;;;;;;;;;;;7374463;19;19919;-79
2023/07/17 14:35:30;;;;;;;;;;;;;;;;;;7370361;19;19919;-77
2023/07/17 14:37:55;;;;;;;;;;;;;;;;;;7366558;19;19915;-77
2023/07/17 14:40:21;;;;;;;;;;;;;;;;;;7384588;19;19915;-78
2023/07/17 14:42:46;;;;;;;;;;;;;;;;;;7398953;19;19922;-74
2023/07/17 14:45:11;;;;;;;;;;;;;;;;;;7370575;19;19926;-77
2023/07/17 14:47:36;;;;;;;;;;;;;;;;;;7367481;19;19918;-76
2023/07/17 14:50:03;;;;;;;;;;;;;;;;;;7367998;19;19964;-72
2023/07/17 14:52:29;;;;;;;;;;;;;;;;;;7366349;19;19929;-71
2023/07/17 14:54:54;;;;;;;;;;;;;;;;;;7364634;19;19934;-70
2023/07/17 14:57:19;;;;;;;;;;;;;;;;;;7389434;19;19918;-70
2023/07/17 14:59:44;;;;;;;;;;;;;;;;;;7366605;19;19979;-71
2023/07/17 15:02:09;;;;;;;;;;;;;;;;;;7365963;19;19923;-71
2023/07/17 15:04:35;;;;;;;;;;;;;;;;;;7367439;19;19919;-71
2023/07/17 15:07:00;;;;;;;;;;;;;;;;;;7367096;19;19918;-71
2023/07/17 15:09:25;;;;;;;;;;;;;;;;;;7389512;19;19954;-69
2023/07/17 15:11:51;;;;;;;;;;;;;;;;;;7366588;19;19957;-71
2023/07/17 15:14:16;;;;;;;;;;;;;;;;;;7369187;19;19926;-70
2023/07/17 15:16:41;;;;;;;;;;;;;;;;;;7373189;19;19932;-73
2023/07/17 15:19:06;;;;;;;;;;;;;;;;;;7371700;19;20327;-71
2023/07/17 15:21:31;;;;;;;;;;;;;;;;;;7389275;19;20389;-73
2023/07/17 15:23:57;;;;;;;;;;;;;;;;;;7362762;19;19922;-75
2023/07/17 15:26:22;;;;;;;;;;;;;;;;;;7363421;19;19914;-76
2023/07/17 15:28:48;;;;;;;;;;;;;;;;;;7361969;19;19930;-74
2023/07/17 15:31:13;;;;;;;;;;;;;;;;;;7363444;19;19918;-74
2023/07/17 15:33:38;;;;;;;;;;;;;;;;;;7388825;19;20005;-76
2023/07/17 15:36:04;;;;;;;;;;;;;;;;;;7367189;19;19926;-71
2023/07/17 15:38:29;;;;;;;;;;;;;;;;;;7368493;19;20330;-73
2023/07/17 15:40:55;;;;;;;;;;;;;;;;;;7364840;19;19922;-66
2023/07/17 15:43:20;;;;;;;;;;;;;;;;;;7366379;19;19935;-69
2023/07/17 15:45:46;;;;;;;;;;;;;;;;;;7388825;19;19918;-77
2023/07/17 15:48:11;;;;;;;;;;;;;;;;;;7366644;19;19931;-76
2023/07/17 15:50:36;;;;;;;;;;;;;;;;;;7368953;19;19919;-76
2023/07/17 15:53:02;;;;;;;;;;;;;;;;;;7370349;19;19915;-76
2023/07/17 15:55:27;;;;;;;;;;;;;;;;;;7368392;19;19921;-75
2023/07/17 15:57:52;;;;;;;;;;;;;;;;;;7366530;19;19936;-69
2023/07/17 16:00:17;;;;;;;;;;;;;;;;;;7389406;19;19947;-77
2023/07/17 16:02:43;;;;;;;;;;;;;;;;;;7366435;19;19926;-74
2023/07/17 16:05:09;;;;;;;;;;;;;;;;;;7371225;19;20354;-76
2023/07/17 16:07:34;;;;;;;;;;;;;;;;;;7375780;19;19942;-75
2023/07/17 16:09:59;;;;;;;;;;;;;;;;;;7371855;19;19974;-74
2023/07/17 16:12:24;;;;;;;;;;;;;;;;;;7388836;19;19946;-73
2023/07/17 16:14:50;;;;;;;;;;;;;;;;;;7363565;19;20215;-73
2023/07/17 16:17:15;;;;;;;;;;;;;;;;;;7362222;19;19986;-74
2023/07/17 16:19:41;;;;;;;;;;;;;;;;;;7356150;19;19923;-73
2023/07/17 16:22:06;;;;;;;;;;;;;;;;;;7362538;19;19911;-75
2023/07/17 16:24:32;;;;;;;;;;;;;;;;;;7382904;19;19944;-74
2023/07/17 16:26:57;;;;;;;;;;;;;;;;;;7362480;19;19919;-74
2023/07/17 16:29:22;;;;;;;;;;;;;;;;;;7361878;19;19918;-74
2023/07/17 16:31:48;;;;;;;;;;;;;;;;;;7365809;19;19929;-73
2023/07/17 16:34:13;;;;;;;;;;;;;;;;;;7363399;19;20357;-74
2023/07/17 16:36:38;;;;;;;;;;;;;;;;;;7382694;19;20247;-74